This is the latest recevied weather packets stored in our database for station/object EA4IAJ-12. If no packets are shown the sender has not sent any weather packets the latest 10 day(s).
| Time | Temp. | Humidity | Pressure | Rain* | Wind** | Luminosity | Snow |
|---|---|---|---|---|---|---|---|
| 1788059234 | 13.89° C | 46% | 990 hPa | - | - | - | - |
| 1788059198 | 13.89° C | 46% | 990 hPa | - | - | - | - |
| 1788058298 | 13.89° C | 45% | 991.2 hPa | - | - | - | - |
| 1788056497 | 15° C | 43% | 994.1 hPa | - | - | - | - |
| 1788054695 | 15° C | 42% | 993.9 hPa | - | - | - | - |
| 1788053795 | 14.44° C | 41% | 992 hPa | - | - | - | - |
| 1788051994 | 15° C | 39% | 992.6 hPa | - | - | - | - |
| 1788050193 | 15.56° C | 38% | 994.4 hPa | - | - | - | - |
| 1788046591 | 16.67° C | 35% | 997 hPa | - | - | - | - |
| 1788045690 | 16.11° C | 34% | 995.3 hPa | - | - | - | - |
| 1788044790 | 17.22° C | 33% | 998.1 hPa | - | - | - | - |
| 1788043889 | 16.67° C | 32% | 996.5 hPa | - | - | - | - |
| 1788042088 | 16.67° C | 31% | 996.2 hPa | - | - | - | - |
| 1788041188 | 17.78° C | 30% | 998.3 hPa | - | - | - | - |
| 1788040311 | 17.22° C | 30% | 996.9 hPa | - | - | - | - |
| 1788039411 | 17.22° C | 29% | 997.2 hPa | - | - | - | - |
| 1788038513 | 17.22° C | 28% | 997.1 hPa | - | - | - | - |
| 1788037607 | 17.78° C | 28% | 998.2 hPa | - | - | - | - |
| 1788036709 | 17.78° C | 27% | 998 hPa | - | - | - | - |
| 1788035800 | 18.33° C | 26% | 999.3 hPa | - | - | - | - |
| 1788034902 | 18.89° C | 25% | 1000.9 hPa | - | - | - | - |
| 1788033995 | 19.44° C | 24% | 1002.1 hPa | - | - | - | - |
| 1788032194 | 20.56° C | 23% | 1006.9 hPa | - | - | - | - |
| 1788031294 | 22.22° C | 23% | 1011.6 hPa | - | - | - | - |
| 1788030393 | 23.89° C | 23% | 1016.8 hPa | - | - | - | - |
* Rain since midnight (hover to see other rain measurements)
** Current wind speed in m/s (hover to see current wind gust speed)